createdAt,value
2023-03-07T00:02:48.080Z,42.90
2023-03-07T00:06:04.908Z,42.50
2023-03-07T00:09:16.152Z,42.80
2023-03-07T00:12:28.755Z,41.90
2023-03-07T00:15:41.269Z,41.60
2023-03-07T00:18:54.509Z,42.80
2023-03-07T00:22:04.524Z,43.20
2023-03-07T00:25:17.084Z,43.00
2023-03-07T00:28:28.201Z,43.60
2023-03-07T00:31:37.733Z,44.40
2023-03-07T00:34:48.764Z,43.80
2023-03-07T00:38:02.501Z,44.50
2023-03-07T00:41:17.105Z,44.60
2023-03-07T00:44:29.580Z,45.00
2023-03-07T00:47:39.734Z,44.80
2023-03-07T00:50:50.844Z,44.40
2023-03-07T00:54:04.471Z,44.10
2023-03-07T00:57:15.727Z,42.80
2023-03-07T01:00:32.631Z,42.50
2023-03-07T01:03:44.729Z,42.30
2023-03-07T01:06:56.166Z,41.20
2023-03-07T01:10:06.541Z,41.10
2023-03-07T01:13:17.469Z,41.00
2023-03-07T01:16:32.830Z,41.20
2023-03-07T01:19:44.088Z,41.40
2023-03-07T01:22:57.853Z,42.70
2023-03-07T01:26:11.012Z,43.30
2023-03-07T01:29:22.354Z,42.90
2023-03-07T01:36:03.774Z,42.50
2023-03-07T01:39:18.079Z,42.10
2023-03-07T01:42:28.090Z,42.10
2023-03-07T01:46:26.211Z,42.00
2023-03-07T01:49:46.499Z,41.80
2023-03-07T01:53:09.081Z,41.60
2023-03-07T01:56:23.840Z,41.90
2023-03-07T01:59:39.382Z,42.10
2023-03-07T02:02:50.791Z,41.90
2023-03-07T02:06:06.318Z,41.50
2023-03-07T02:09:22.183Z,41.30
2023-03-07T02:12:32.336Z,41.50
2023-03-07T02:15:43.508Z,41.50
2023-03-07T02:18:56.403Z,41.60
2023-03-07T02:22:11.403Z,41.30
2023-03-07T02:25:24.987Z,41.10
2023-03-07T02:28:34.711Z,41.50
2023-03-07T02:31:44.943Z,41.60
2023-03-07T02:35:00.195Z,41.70
2023-03-07T02:38:12.459Z,41.40
2023-03-07T02:41:23.194Z,41.20
2023-03-07T02:44:35.300Z,41.50
2023-03-07T02:47:45.424Z,41.50
2023-03-07T02:50:56.253Z,41.10
2023-03-07T02:54:10.176Z,41.30
2023-03-07T02:57:22.369Z,41.90
2023-03-07T03:00:38.454Z,42.20
2023-03-07T03:03:52.519Z,42.30
2023-03-07T03:07:04.293Z,41.50
2023-03-07T03:10:19.676Z,41.30
2023-03-07T03:13:28.591Z,41.40
2023-03-07T03:16:39.181Z,41.50
2023-03-07T03:19:54.428Z,41.90
2023-03-07T03:23:06.293Z,40.80
2023-03-07T03:26:17.729Z,40.80
2023-03-07T03:29:27.843Z,40.90
2023-03-07T03:32:43.399Z,41.00
2023-03-07T03:35:58.582Z,40.70
2023-03-07T03:39:09.569Z,40.60
2023-03-07T03:42:22.223Z,40.80
2023-03-07T03:45:33.276Z,40.90
2023-03-07T03:48:44.893Z,41.00
2023-03-07T03:51:55.509Z,40.60
2023-03-07T03:55:06.085Z,40.50
2023-03-07T03:58:14.905Z,40.80
2023-03-07T04:01:28.933Z,40.70
2023-03-07T04:04:38.792Z,40.90
2023-03-07T04:07:53.390Z,40.80
2023-03-07T04:11:03.959Z,40.60
2023-03-07T04:14:15.704Z,40.80
2023-03-07T04:17:26.026Z,40.70
2023-03-07T04:20:40.910Z,40.40
2023-03-07T04:23:50.153Z,40.80
2023-03-07T04:27:04.172Z,41.00
2023-03-07T04:30:20.571Z,41.10
2023-03-07T04:33:30.561Z,40.90
2023-03-07T04:36:42.534Z,40.50
2023-03-07T04:39:52.156Z,40.30
2023-03-07T04:43:02.909Z,40.60
2023-03-07T04:46:13.707Z,40.70
2023-03-07T04:49:24.612Z,40.70
2023-03-07T04:52:38.376Z,40.20
2023-03-07T04:55:47.638Z,40.00
2023-03-07T04:58:56.776Z,40.20
2023-03-07T05:02:08.211Z,40.40
2023-03-07T05:05:18.122Z,40.30
2023-03-07T05:08:27.232Z,39.80
2023-03-07T05:11:37.863Z,39.70
2023-03-07T05:14:48.452Z,39.90
2023-03-07T05:18:00.490Z,39.90
2023-03-07T05:21:11.855Z,39.70
2023-03-07T05:24:22.744Z,39.80
2023-03-07T05:27:34.374Z,40.10
2023-03-07T05:30:45.323Z,40.10
2023-03-07T05:33:55.462Z,40.10
2023-03-07T05:37:07.086Z,39.90
2023-03-07T05:40:20.831Z,39.70
2023-03-07T05:43:32.137Z,39.80
2023-03-07T05:46:44.530Z,39.80
2023-03-07T05:49:53.338Z,39.70
2023-03-07T05:53:05.026Z,39.50
2023-03-07T05:56:16.481Z,39.30
2023-03-07T05:59:29.970Z,39.40
2023-03-07T06:02:42.407Z,39.40
2023-03-07T06:05:54.971Z,39.30
2023-03-07T06:09:06.251Z,39.00
2023-03-07T06:12:15.235Z,39.00
2023-03-07T06:15:25.242Z,39.10
2023-03-07T06:18:33.360Z,39.10
2023-03-07T06:21:43.989Z,39.00
2023-03-07T06:24:52.868Z,39.10
2023-03-07T06:28:05.038Z,39.10
2023-03-07T06:31:14.664Z,39.20
2023-03-07T06:34:26.160Z,39.20
2023-03-07T06:37:37.119Z,39.00
2023-03-07T06:40:46.944Z,38.80
2023-03-07T06:43:59.363Z,38.90
2023-03-07T06:47:11.296Z,39.00
2023-03-07T06:50:34.524Z,39.00
2023-03-07T06:53:33.112Z,38.80
2023-03-07T06:56:45.472Z,38.80
2023-03-07T06:59:56.378Z,38.80
2023-03-07T07:03:08.820Z,38.80
2023-03-07T07:06:20.635Z,38.90
2023-03-07T07:09:30.152Z,38.80
2023-03-07T07:12:42.721Z,38.90
2023-03-07T07:15:53.249Z,38.80
2023-03-07T07:19:06.630Z,38.30
2023-03-07T07:22:12.510Z,38.20
2023-03-07T07:25:23.542Z,38.40
2023-03-07T07:28:35.136Z,38.50
2023-03-07T07:31:44.686Z,38.60
2023-03-07T07:34:53.724Z,38.70
2023-03-07T07:38:06.047Z,38.60
2023-03-07T07:41:16.128Z,38.50
2023-03-07T07:44:26.616Z,38.60
2023-03-07T07:47:34.006Z,38.70
2023-03-07T07:50:42.045Z,38.70
2023-03-07T07:53:54.028Z,38.80
2023-03-07T07:57:05.663Z,38.70
2023-03-07T08:00:18.723Z,38.70
2023-03-07T08:03:29.243Z,38.10
2023-03-07T08:06:38.407Z,38.20
2023-03-07T08:09:50.792Z,38.40
2023-03-07T08:13:03.109Z,38.60
2023-03-07T08:16:17.484Z,38.70
2023-03-07T08:19:25.579Z,38.70
2023-03-07T08:22:38.082Z,38.80
2023-03-07T08:25:51.784Z,38.80
2023-03-07T08:29:03.904Z,38.60
2023-03-07T08:32:14.458Z,38.00
2023-03-07T08:35:27.335Z,38.10
2023-03-07T08:38:38.074Z,38.20
2023-03-07T08:41:51.677Z,38.40
2023-03-07T08:45:03.016Z,38.50
2023-03-07T08:48:15.931Z,38.70
2023-03-07T08:51:26.718Z,38.70
2023-03-07T08:54:41.532Z,38.80
2023-03-07T08:57:51.686Z,38.60
2023-03-07T09:01:02.933Z,38.10
2023-03-07T09:04:13.794Z,38.20
2023-03-07T09:07:24.682Z,38.20
2023-03-07T09:10:36.431Z,38.40
2023-03-07T09:13:52.930Z,38.50
2023-03-07T09:17:00.467Z,38.70
2023-03-07T09:20:11.113Z,38.80
2023-03-07T09:23:23.772Z,38.60
2023-03-07T09:26:35.150Z,38.40
2023-03-07T09:29:43.982Z,38.10
2023-03-07T09:32:53.720Z,38.10
2023-03-07T09:36:06.265Z,38.20
2023-03-07T09:39:17.384Z,38.30
2023-03-07T09:42:27.217Z,38.50
2023-03-07T09:45:49.798Z,38.50
2023-03-07T09:49:25.829Z,38.80
2023-03-07T09:52:36.370Z,38.50
2023-03-07T09:55:46.721Z,38.30
2023-03-07T09:59:06.539Z,38.10
2023-03-07T10:02:16.337Z,38.10
2023-03-07T10:05:32.147Z,38.20
2023-03-07T10:08:39.498Z,38.30
2023-03-07T10:11:59.333Z,38.40
2023-03-07T10:15:20.468Z,38.60
2023-03-07T10:18:42.670Z,38.60
2023-03-07T10:21:55.074Z,38.40
2023-03-07T10:25:20.258Z,37.90
2023-03-07T10:28:32.164Z,38.00
2023-03-07T10:31:46.667Z,38.10
2023-03-07T10:34:58.520Z,38.20
2023-03-07T10:38:07.112Z,37.90
2023-03-07T10:41:16.948Z,38.10
2023-03-07T10:44:25.965Z,38.20
2023-03-07T10:47:35.839Z,38.30
2023-03-07T10:50:45.814Z,38.20
2023-03-07T10:53:56.477Z,37.90
2023-03-07T10:57:32.169Z,37.80
2023-03-07T11:00:44.951Z,37.90
2023-03-07T11:03:58.534Z,37.90
2023-03-07T11:07:08.549Z,38.20
2023-03-07T11:10:30.908Z,38.20
2023-03-07T11:13:42.412Z,38.20
2023-03-07T11:16:56.332Z,38.20
2023-03-07T11:20:07.833Z,38.00
2023-03-07T11:23:23.975Z,37.80
2023-03-07T11:26:36.945Z,37.30
2023-03-07T11:29:47.835Z,37.40
2023-03-07T11:33:00.901Z,37.60
2023-03-07T11:36:10.967Z,37.30
2023-03-07T11:39:25.884Z,37.50
2023-03-07T11:42:39.431Z,37.60
2023-03-07T11:45:49.028Z,37.60
2023-03-07T11:49:04.321Z,37.40
2023-03-07T11:52:20.741Z,37.40
2023-03-07T11:55:35.511Z,37.30
2023-03-07T11:58:53.821Z,37.50
2023-03-07T12:02:05.755Z,37.70
2023-03-07T12:05:43.581Z,37.70
2023-03-07T12:09:23.523Z,37.60
2023-03-07T12:16:18.341Z,37.50
2023-03-07T12:19:52.161Z,37.60
2023-03-07T12:23:19.983Z,37.60
2023-03-07T12:26:28.508Z,37.60
2023-03-07T12:29:42.836Z,37.60
2023-03-07T12:32:54.372Z,37.60
2023-03-07T12:36:07.129Z,37.60
2023-03-07T12:39:22.169Z,37.50
2023-03-07T12:42:40.539Z,37.50
2023-03-07T12:45:55.031Z,37.50
2023-03-07T12:49:06.717Z,37.90
2023-03-07T12:52:20.521Z,37.90
2023-03-07T12:55:31.269Z,37.80
2023-03-07T12:58:45.993Z,37.90
2023-03-07T13:01:59.328Z,37.20
2023-03-07T13:05:10.244Z,37.10
2023-03-07T13:08:24.078Z,37.20
2023-03-07T13:11:34.396Z,37.20
2023-03-07T13:14:47.421Z,37.70
2023-03-07T13:18:06.005Z,37.60
2023-03-07T13:21:35.382Z,37.60
2023-03-07T13:24:47.936Z,37.40
2023-03-07T13:27:59.552Z,37.10
2023-03-07T13:31:58.763Z,36.80
2023-03-07T13:35:12.574Z,36.70
2023-03-07T13:38:43.296Z,36.60
2023-03-07T13:41:56.709Z,36.40
2023-03-07T13:45:09.920Z,37.00
2023-03-07T13:48:39.178Z,36.60
2023-03-07T13:52:03.676Z,36.40
2023-03-07T13:55:32.127Z,36.20
2023-03-07T13:58:42.902Z,35.60
2023-03-07T14:01:58.395Z,35.60
2023-03-07T14:05:10.782Z,35.40
2023-03-07T14:08:19.961Z,35.30
2023-03-07T14:11:34.878Z,36.00
2023-03-07T14:14:50.209Z,35.90
2023-03-07T14:18:12.410Z,36.10
2023-03-07T14:21:27.322Z,35.60
2023-03-07T14:24:59.855Z,35.40
2023-03-07T14:28:22.172Z,35.10
2023-03-07T14:31:32.520Z,34.60
2023-03-07T14:34:43.300Z,34.60
2023-03-07T14:37:54.306Z,34.60
2023-03-07T14:45:33.274Z,34.40
2023-03-07T14:49:14.805Z,34.80
2023-03-07T14:52:31.143Z,34.60
2023-03-07T14:55:39.427Z,34.50
2023-03-07T14:58:54.627Z,34.20
2023-03-07T15:02:06.154Z,34.80
2023-03-07T15:05:20.637Z,33.90
2023-03-07T15:08:32.129Z,33.80
2023-03-07T15:11:42.255Z,33.90
2023-03-07T15:14:51.693Z,33.90
2023-03-07T15:18:06.889Z,33.80
2023-03-07T15:21:19.240Z,34.00
2023-03-07T15:24:31.491Z,33.70
2023-03-07T15:27:41.336Z,33.60
2023-03-07T15:30:53.226Z,33.40
2023-03-07T15:34:22.742Z,33.90
2023-03-07T15:37:35.437Z,33.30
2023-03-07T15:40:48.007Z,33.30
2023-03-07T15:44:21.131Z,33.60
2023-03-07T15:47:30.633Z,32.40
2023-03-07T15:50:41.410Z,30.30
2023-03-07T15:53:57.134Z,29.40
2023-03-07T15:57:10.877Z,29.80
2023-03-07T16:00:26.360Z,29.70
2023-03-07T16:03:38.553Z,29.40
2023-03-07T16:06:48.444Z,28.70
2023-03-07T16:10:01.607Z,28.50
2023-03-07T16:13:08.466Z,28.50
2023-03-07T16:16:23.750Z,28.60
2023-03-07T16:19:35.102Z,28.20
2023-03-07T16:22:44.598Z,28.20
2023-03-07T16:25:54.618Z,27.80
2023-03-07T16:29:07.484Z,27.80
2023-03-07T16:32:21.902Z,26.50
2023-03-07T16:35:31.880Z,26.50
2023-03-07T16:38:43.459Z,25.80
2023-03-07T16:41:54.392Z,26.10
2023-03-07T16:45:05.101Z,26.50
2023-03-07T16:48:14.147Z,26.70
2023-03-07T16:51:25.052Z,26.90
2023-03-07T16:54:34.247Z,26.90
2023-03-07T16:57:43.004Z,26.80
2023-03-07T17:00:55.038Z,26.10
2023-03-07T17:04:06.650Z,25.70
2023-03-07T17:07:23.428Z,25.70
2023-03-07T17:10:35.692Z,25.70
2023-03-07T17:13:46.497Z,26.10
2023-03-07T17:16:58.622Z,26.30
2023-03-07T17:20:12.811Z,26.30
2023-03-07T17:23:25.262Z,26.40
2023-03-07T17:26:35.387Z,26.00
2023-03-07T17:29:46.030Z,25.90
2023-03-07T17:32:54.120Z,25.80
2023-03-07T17:36:07.524Z,24.90
2023-03-07T17:39:19.194Z,25.40
2023-03-07T17:42:29.560Z,26.20
2023-03-07T17:45:40.028Z,26.80
2023-03-07T17:48:48.033Z,27.80
2023-03-07T17:52:00.581Z,28.50
2023-03-07T17:55:15.610Z,28.70
2023-03-07T17:58:29.928Z,29.00
2023-03-07T18:01:42.113Z,29.20
2023-03-07T18:04:55.636Z,29.70
2023-03-07T18:08:05.806Z,29.80
2023-03-07T18:11:15.364Z,30.00
2023-03-07T18:14:26.247Z,30.10
2023-03-07T18:17:47.436Z,30.30
2023-03-07T18:20:49.783Z,30.30
2023-03-07T18:23:59.719Z,30.50
2023-03-07T18:27:11.873Z,30.50
2023-03-07T18:30:27.946Z,30.60
2023-03-07T18:33:37.152Z,30.60
2023-03-07T18:36:48.437Z,30.70
2023-03-07T18:40:01.132Z,30.90
2023-03-07T18:43:12.153Z,30.90
2023-03-07T18:46:24.311Z,30.90
2023-03-07T18:49:35.871Z,31.00
2023-03-07T18:52:46.904Z,31.30
2023-03-07T18:55:58.877Z,31.60
2023-03-07T18:59:06.913Z,31.60
2023-03-07T19:02:17.751Z,31.90
2023-03-07T19:05:29.017Z,31.70
2023-03-07T19:08:41.771Z,31.80
2023-03-07T19:11:54.021Z,31.70
2023-03-07T19:15:04.783Z,32.10
2023-03-07T19:18:14.850Z,32.20
2023-03-07T19:21:27.093Z,31.90
2023-03-07T19:24:39.007Z,31.80
2023-03-07T19:27:49.935Z,32.40
2023-03-07T19:31:01.752Z,32.00
2023-03-07T19:34:13.382Z,31.70
2023-03-07T19:37:22.379Z,32.40
2023-03-07T19:40:31.638Z,32.00
2023-03-07T19:43:44.440Z,31.90
2023-03-07T19:46:54.137Z,32.00
2023-03-07T19:50:05.165Z,31.80
2023-03-07T19:53:15.009Z,31.90
2023-03-07T19:56:27.926Z,31.80
2023-03-07T19:59:37.926Z,31.40
2023-03-07T20:02:49.751Z,31.20
2023-03-07T20:05:59.630Z,31.30
2023-03-07T20:09:12.323Z,31.20
2023-03-07T20:12:22.280Z,31.50
2023-03-07T20:15:34.600Z,31.60
2023-03-07T20:18:45.340Z,31.70
2023-03-07T20:21:55.274Z,31.70
2023-03-07T20:25:05.829Z,31.90
2023-03-07T20:28:18.148Z,32.20
2023-03-07T20:31:28.720Z,32.60
2023-03-07T20:34:38.926Z,32.60
2023-03-07T20:37:49.721Z,32.60
2023-03-07T20:41:05.177Z,32.60
2023-03-07T20:44:14.964Z,32.50
2023-03-07T20:47:24.507Z,32.70
2023-03-07T20:50:36.954Z,32.50
2023-03-07T20:53:48.546Z,31.90
2023-03-07T20:56:59.171Z,32.50
2023-03-07T21:00:09.774Z,32.10
2023-03-07T21:03:20.006Z,32.20
2023-03-07T21:06:29.054Z,32.40
2023-03-07T21:09:43.005Z,32.30
2023-03-07T21:12:53.872Z,32.50
2023-03-07T21:16:04.245Z,32.50
2023-03-07T21:19:16.951Z,32.20
2023-03-07T21:22:27.496Z,31.80
2023-03-07T21:25:39.912Z,31.70
2023-03-07T21:28:49.635Z,31.70
2023-03-07T21:32:00.886Z,32.00
2023-03-07T21:35:16.960Z,32.00
2023-03-07T21:38:27.529Z,32.60
2023-03-07T21:41:36.926Z,32.20
2023-03-07T21:44:46.542Z,32.30
2023-03-07T21:47:57.303Z,32.60
2023-03-07T21:51:06.564Z,32.80
2023-03-07T21:54:16.235Z,32.90
2023-03-07T21:57:26.326Z,32.40
2023-03-07T22:00:35.979Z,32.60
2023-03-07T22:03:46.778Z,32.60
2023-03-07T22:06:57.214Z,32.80
2023-03-07T22:10:09.577Z,33.00
2023-03-07T22:13:20.087Z,33.60
2023-03-07T22:16:31.552Z,33.20
2023-03-07T22:19:43.275Z,33.30
2023-03-07T22:22:53.074Z,33.50
2023-03-07T22:26:03.712Z,34.20
2023-03-07T22:29:15.236Z,33.30
2023-03-07T22:32:25.826Z,33.30
2023-03-07T22:35:33.977Z,32.80
2023-03-07T22:38:45.115Z,33.10
2023-03-07T22:41:57.759Z,33.60
2023-03-07T22:45:10.216Z,33.60
2023-03-07T22:48:21.893Z,33.60
2023-03-07T22:51:31.422Z,34.00
2023-03-07T22:54:44.164Z,34.40
2023-03-07T22:57:54.723Z,34.20
2023-03-07T23:01:05.348Z,33.80
2023-03-07T23:04:13.418Z,33.30
2023-03-07T23:07:25.445Z,33.40
2023-03-07T23:10:37.829Z,33.60
2023-03-07T23:13:48.895Z,33.60
2023-03-07T23:16:58.717Z,33.70
2023-03-07T23:20:10.953Z,33.80
2023-03-07T23:23:19.674Z,33.90
2023-03-07T23:26:31.695Z,33.60
2023-03-07T23:29:40.462Z,33.40
2023-03-07T23:32:49.748Z,33.20
2023-03-07T23:36:01.082Z,33.40
2023-03-07T23:39:11.293Z,33.70
2023-03-07T23:42:23.998Z,33.80
2023-03-07T23:45:37.431Z,34.10
2023-03-07T23:48:49.377Z,34.10
2023-03-07T23:52:00.081Z,34.20
2023-03-07T23:55:14.006Z,34.20
2023-03-07T23:58:24.206Z,34.20
